createdAt,value
2022-09-16T11:15:00.431Z,21.3
2022-09-16T11:20:00.362Z,21.3
2022-09-16T11:25:00.319Z,21.3
2022-09-16T11:30:00.356Z,21.2
2022-09-16T11:35:00.362Z,21.1
2022-09-16T11:40:00.434Z,21.2
2022-09-16T11:45:00.390Z,21.2
2022-09-16T11:50:00.362Z,21.4
2022-09-16T11:55:00.399Z,21.5
2022-09-16T12:00:00.695Z,21.6
2022-09-16T12:05:00.965Z,21.7
2022-09-16T12:10:00.513Z,21.8
2022-09-16T12:15:04.707Z,21.8
2022-09-16T12:20:00.617Z,21.8
2022-09-16T12:25:00.644Z,21.8
2022-09-16T12:30:00.365Z,21.9
2022-09-16T12:35:00.342Z,21.9
2022-09-16T12:40:00.371Z,21.9
2022-09-16T12:45:00.355Z,21.9
2022-09-16T12:50:00.333Z,21.9
2022-09-16T12:55:08.413Z,21.9
2022-09-16T13:00:00.352Z,21.8
2022-09-16T13:05:00.354Z,21.7
2022-09-16T13:10:00.305Z,21.7
2022-09-16T13:15:00.373Z,21.6
2022-09-16T13:20:00.366Z,21.5
2022-09-16T13:25:03.443Z,21.5
2022-09-16T13:30:00.383Z,21.4
2022-09-16T13:35:00.386Z,21.4
2022-09-16T13:40:00.723Z,21.4
2022-09-16T13:45:00.792Z,21.4
2022-09-16T13:50:00.529Z,21.4
2022-09-16T13:55:11.889Z,21.5
2022-09-16T14:00:00.701Z,21.5
2022-09-16T14:05:00.381Z,21.5
2022-09-16T14:10:00.698Z,21.5
2022-09-16T14:15:00.684Z,21.5
2022-09-16T14:20:00.420Z,21.5
2022-09-16T14:25:05.810Z,21.5
2022-09-16T14:30:00.421Z,21.4
2022-09-16T14:35:00.433Z,21.4
2022-09-16T14:40:00.459Z,21.3
2022-09-16T14:45:05.783Z,21.3
2022-09-16T14:50:00.416Z,21.2
2022-09-16T14:55:00.422Z,21.2
2022-09-16T15:00:00.431Z,21.3
2022-09-16T15:05:00.420Z,21.3
2022-09-16T15:10:00.420Z,21.3
2022-09-16T15:15:00.458Z,21.4
2022-09-16T15:20:00.428Z,21.4
2022-09-16T15:25:00.418Z,21.5
2022-09-16T15:30:00.738Z,21.7
2022-09-16T15:35:00.426Z,21.8
2022-09-16T15:40:00.514Z,21.9
2022-09-16T15:45:00.488Z,21.8
2022-09-16T15:50:00.514Z,21.8
2022-09-16T15:55:00.452Z,21.6
2022-09-16T16:00:00.501Z,21.6
2022-09-16T16:05:00.460Z,21.5
2022-09-16T16:10:00.460Z,21.4
2022-09-16T16:15:00.508Z,21.3
2022-09-16T16:20:00.451Z,21.3
2022-09-16T16:25:00.453Z,21.3
2022-09-16T16:30:00.447Z,21.2
2022-09-16T16:35:00.455Z,21.2
2022-09-16T16:40:00.510Z,21.2
2022-09-16T16:45:00.462Z,21.2
2022-09-16T16:50:00.437Z,21.1
2022-09-16T16:55:00.425Z,21.1
2022-09-16T17:00:00.466Z,21
2022-09-16T17:05:00.471Z,21
2022-09-16T17:10:00.467Z,20.9
2022-09-16T17:15:00.445Z,20.9
2022-09-16T17:20:00.488Z,20.8
2022-09-16T17:25:00.458Z,20.8
2022-09-16T17:30:00.429Z,20.7
2022-09-16T17:35:00.460Z,20.7
2022-09-16T17:40:00.507Z,20.7
2022-09-16T17:45:00.483Z,20.6
2022-09-16T17:50:00.468Z,20.3
2022-09-16T17:55:00.481Z,20.1
2022-09-16T18:00:00.453Z,19.9
2022-09-16T18:05:00.530Z,19.8
2022-09-16T18:10:00.481Z,19.7
2022-09-16T18:15:00.491Z,19.6
2022-09-16T18:20:03.754Z,19.6
2022-09-16T18:25:00.500Z,19.5
2022-09-16T18:30:00.500Z,19.4
2022-09-16T18:35:00.491Z,19.4
2022-09-16T18:40:00.563Z,19.3
2022-09-16T18:45:00.512Z,19.3
2022-09-16T18:50:00.500Z,19.3
2022-09-16T18:55:00.510Z,19.3
2022-09-16T19:00:00.510Z,19.2
2022-09-16T19:05:00.520Z,19.2
2022-09-16T19:10:00.525Z,19.1
2022-09-16T19:15:00.504Z,19.1
2022-09-16T19:20:00.560Z,19.1
2022-09-16T19:25:01.584Z,19.1
2022-09-16T19:30:00.537Z,19.1
2022-09-16T19:35:00.520Z,19.1
2022-09-16T19:40:00.618Z,19.1
2022-09-16T19:45:00.489Z,19.1
2022-09-16T19:50:00.545Z,19.1
2022-09-16T19:55:00.538Z,19.1
2022-09-16T20:00:00.524Z,19.1
2022-09-16T20:05:00.531Z,19.1
2022-09-16T20:10:00.565Z,19.1
2022-09-16T20:15:00.544Z,19.1
2022-09-16T20:20:00.588Z,19.1
2022-09-16T20:25:18.965Z,19.1
2022-09-16T20:30:00.548Z,19.1
2022-09-16T20:35:00.519Z,19.1
2022-09-16T20:40:00.588Z,19.1
2022-09-16T20:45:00.553Z,19.1
2022-09-16T20:50:00.559Z,19.1
2022-09-16T20:55:00.563Z,19.1
2022-09-16T21:00:00.561Z,19.1
2022-09-16T21:05:00.573Z,19.1
2022-09-16T21:10:00.529Z,19.1
2022-09-16T21:15:00.551Z,19.1
2022-09-16T21:20:00.575Z,19.1
2022-09-16T21:25:00.563Z,19.1
2022-09-16T21:30:00.557Z,19.1
2022-09-16T21:35:00.584Z,19.1
2022-09-16T21:40:00.638Z,19.1
2022-09-16T21:45:00.558Z,19.1
2022-09-16T21:50:00.547Z,19.1
2022-09-16T21:55:00.604Z,19.1
2022-09-16T22:00:00.602Z,19.1
2022-09-16T22:05:00.601Z,19.1
2022-09-16T22:10:00.593Z,19.1
2022-09-16T22:15:00.586Z,19.1
2022-09-16T22:20:00.632Z,19.1
2022-09-16T22:25:00.601Z,19.1
2022-09-16T22:30:00.630Z,19.1
2022-09-16T22:35:00.628Z,19.1
2022-09-16T22:40:00.665Z,19.1
2022-09-16T22:45:00.623Z,19.1
2022-09-16T22:50:00.607Z,19.1
2022-09-16T22:55:00.566Z,19.1
2022-09-16T23:00:00.615Z,19.1
2022-09-16T23:05:00.642Z,19.1
2022-09-16T23:10:00.637Z,19.1
2022-09-16T23:15:00.607Z,19.1
2022-09-16T23:20:00.640Z,19.1
2022-09-16T23:25:00.644Z,19.1
2022-09-16T23:30:00.642Z,19.1
2022-09-16T23:35:00.642Z,19.1
2022-09-16T23:40:00.631Z,19.1
2022-09-16T23:45:00.602Z,19.1
2022-09-16T23:50:00.643Z,19.1
2022-09-16T23:55:00.658Z,19.1
